< Typhoon 200510 2005 Season Typhoon 200512 >
Typhoon 200511 (MAWAR)
General InformationTrack Information on Google MapsDetailed Wind InformationAccess Analytics MapList of All Images || NewsDisaster Info.WeblogTrackbackTyphoon FrontResourceGoogle EarthGE AnimationAtom FeedGeoJSON
Detalied Best Track (Time Zone = UTC)
Year Month Day Hour Lat. Long. Pressure (hPa) Wind (kt) Class Image Chart
2005 8 19 06 20.5 142.8 1008 0 2 Image Chart
2005 8 19 12 20.5 142.6 1008 0 2 Image Chart
2005 8 19 18 20.5 142.4 1002 35 3 Image Chart
2005 8 20 00 20.7 142.1 1000 40 3 Image Chart
2005 8 20 06 21.0 141.8 1000 40 3 Image Chart
2005 8 20 12 21.3 141.5 996 45 3 Image Chart
2005 8 20 18 21.6 141.3 985 50 4 Image Chart
2005 8 21 00 22.0 140.7 970 65 5 Image Chart
2005 8 21 06 22.4 140.5 955 75 5 Image Chart
2005 8 21 12 22.6 140.1 940 90 5 Image Chart
2005 8 21 18 22.9 139.8 930 95 5 Image Chart
2005 8 22 00 23.4 139.3 930 95 5 Image Chart
2005 8 22 06 23.7 139.2 935 90 5 Image Chart
2005 8 22 12 24.0 138.8 940 85 5 Image Chart
2005 8 22 18 24.6 138.2 950 80 5 Image Chart
2005 8 23 00 25.4 137.8 950 80 5 Image Chart
2005 8 23 06 26.3 137.6 945 80 5 Image Chart
2005 8 23 12 26.9 137.3 945 80 5 Image Chart
2005 8 23 18 27.8 137.0 945 80 5 Image Chart
2005 8 24 00 28.7 136.9 945 85 5 Image Chart
2005 8 24 06 29.7 137.0 945 85 5 Image Chart
2005 8 24 12 30.6 137.2 945 85 5 Image Chart
2005 8 24 15 31.2 137.2 950 80 5 Image Chart
2005 8 24 18 31.5 137.0 955 80 5 Image Chart
2005 8 24 21 32.1 137.1 960 80 5 Image Chart
2005 8 25 00 32.6 137.1 960 75 5 Image Chart
2005 8 25 03 33.0 137.3 965 75 5 Image Chart
2005 8 25 06 33.4 137.7 965 70 5 Image Chart
2005 8 25 09 33.9 137.9 965 70 5 Image Chart
2005 8 25 12 34.3 138.6 965 70 5 Image Chart
2005 8 25 15 34.8 139.2 970 65 5 Image Chart
2005 8 25 17 35.1 139.5 975 65 5 Image Chart
2005 8 25 18 35.3 139.8 975 65 5 Image Chart
2005 8 25 19 35.5 140.0 980 65 5 Image Chart
2005 8 25 21 35.8 140.3 985 60 4 Image Chart
2005 8 26 00 36.1 141.0 985 50 4 Image Chart
2005 8 26 03 36.3 141.6 990 50 4 Image Chart
2005 8 26 06 36.8 142.7 990 45 3 Image Chart
2005 8 26 12 37.1 144.6 990 45 3 Image Chart
2005 8 26 18 37.4 146.2 992 40 3 Image Chart
2005 8 27 00 37.3 148.0 994 40 3 Image Chart
2005 8 27 06 37.3 149.3 996 40 3 Image Chart
2005 8 27 12 36.6 150.8 998 40 3 Image Chart
2005 8 27 18 36.3 151.8 998 40 3 Image Chart
2005 8 28 00 35.8 153.0 1000 0 6 Image Chart
2005 8 28 06 35.7 153.3 1000 0 6 Image Chart
2005 8 28 12 36.0 153.6 1000 0 6 Image Chart
2005 8 28 18 36.3 153.3 1002 0 6 Image Chart
2005 8 29 00 36.9 153.4 1004 0 6 Image Chart
2005 8 29 06 37.5 153.6 1004 0 6 Image Chart
2005 8 29 12 39.1 154.5 1004 0 6 Image Chart
2005 8 29 18 41.0 156.2 1004 0 6 Image Chart
2005 8 30 00 40.9 156.9 1006 0 6 Image Chart
2005 8 30 06 40.7 157.6 1006 0 6 Image Chart
2005 8 30 12 40.3 158.3 1008 0 6 Image Chart
2005 8 30 18 40.0 158.9 1008 0 6 Image Chart
2005 8 31 00 39.7 159.7 1008 0 6 Image Chart
2005 8 31 06 39.6 160.8 1010 0 6 Image Chart
2005 8 31 12 39.5 161.7 1012 0 6 Image Chart
2005 8 31 18 39.5 162.6 1012 0 6 Image Chart
2005 9 1 00 39.5 163.6 1014 0 6 Image Chart
Japan Meteorological Agency Best Track Data | Correction Date : 2005-12-19
< Typhoon 200510 2005 Season Typhoon 200512 >

Help